• Join FlightAware (Why Join?)
  • Login
  • US Flag 
01:40PM EDT


 

Airport Tracker/Info


-or-


 

Live Flight TrackerFlight Track Log ✈ AWE235 ✈ 31-Jul-2013 ✈ KDTW - KPHX

Flight Track Log - Related Links

Times and Time Zones

All times are in EDT time to prevent confusion due to time zone crossing. See the AWE235 flight status page for this flight to view local times or setup timezone preferences in your user account.

Time Position Orientation Groundspeed Altitude Reporting Facility
EDT Latitude Longitude Course Direction KTS MPH feet Rate Location/Type
09:02PM 42.2033 -83.3722 270° West 157 181 1,600  Level Cleveland Center
09:03PM 42.1600 -83.4319 226° Southwest 213 245 3,700 2,160 Climbing Cleveland Center
09:04PM 42.1292 -83.5006 239° Southwest 231 266 6,500 2,580 Climbing Cleveland Center
09:05PM 42.1625 -83.5861 298° West 276 318 9,000 2,640 Climbing Cleveland Center
09:06PM 42.1978 -83.6692 300° West 283 326 11,700 2,160 Climbing Cleveland Center
09:07PM 42.2369 -83.7608 300° West 289 333 13,300 1,860 Climbing Cleveland Center
09:08PM 42.4167 -84.1799 270° West  Level FlightAware Approximate
09:08PM 42.2717 -83.8608 295° West 289 333 15,500  Level Cleveland Center
09:09PM 42.2942 -83.9464 290° West 297 342 17,300 1,500 Climbing Cleveland Center
09:10PM 42.3261 -84.0686 290° West 310 357 18,600 1,080 Climbing Cleveland Center
09:11PM 42.3575 -84.1969 288° West 337 388 19,500 1,440 Climbing Cleveland Center
09:12PM 42.3906 -84.3367 288° West 372 428 21,500 1,800 Climbing Cleveland Center
09:13PM 42.4236 -84.4736 288° West 382 440 23,100 1,620 Climbing Cleveland Center
09:15PM 42.4394 -84.6519 277° West 393 452 25,200 1,500 Climbing Chicago Center
09:16PM 42.4433 -84.7972 272° West 388 447 26,500 1,080 Climbing Chicago Center
09:17PM 42.4464 -84.9489 272° West 400 460 27,500 1,200 Climbing Chicago Center
09:18PM 42.4494 -85.1033 272° West 408 470 29,000 1,320 Climbing Chicago Center
09:19PM 42.4489 -85.2872 270° West 410 472 30,300 960 Climbing Chicago Center
09:20PM 42.4233 -85.4361 257° West 407 468 31,000 300 Climbing Chicago Center
09:21PM 42.3992 -85.5844 258° West 405 466 31,000  Level Chicago Center
09:22PM 42.3683 -85.7289 254° West 400 460 31,000 360 Level Chicago Center
09:23PM 42.3292 -85.8700 249° West 402 463 31,800 900 Climbing Chicago Center
09:24PM 42.2908 -86.0150 250° West 407 468 32,900 540 Climbing Chicago Center
09:25PM 42.2519 -86.1675 251° West 402 463 33,000 420 Climbing Chicago Center
09:26PM 42.2147 -86.3078 250° West 400 460 33,800 480 Climbing Chicago Center
09:27PM 42.1769 -86.4506 250° West 405 466 34,000 60 Climbing Chicago Center
09:28PM 42.1317 -86.6197 250° West 405 466 34,000  Level Chicago Center
09:29PM 42.0936 -86.7625 250° West 407 468 34,000  Level Chicago Center
09:30PM 42.0556 -86.9044 250° West 406 467 34,000  Level Chicago Center
09:31PM 42.0164 -87.0464 250° West 407 468 34,000  Level Chicago Center
09:32PM 41.9764 -87.1878 249° West 405 466 34,000  Level Chicago Center
09:33PM 41.9261 -87.3550 248° West 403 464 34,000  Level Chicago Center
09:34PM 41.8856 -87.4925 248° West 405 466 34,000  Level Chicago Center
09:35PM 41.8428 -87.6342 248° West 407 468 34,000  Level Chicago Center
09:36PM 41.8133 -87.7794 255° West 405 466 34,000  Level Chicago Center
09:37PM 41.7850 -87.9483 257° West 399 459 34,000  Level Chicago Center
09:38PM 41.7603 -88.0967 257° West 403 464 34,000  Level Chicago Center
09:39PM 41.7378 -88.2403 258° West 403 464 34,000  Level Chicago Center
09:40PM 41.7114 -88.3842 256° West 401 461 34,000  Level Chicago Center
09:41PM 41.6856 -88.5303 257° West 401 461 34,000  Level Chicago Center
09:43PM 41.6614 -88.6792 258° West 408 470 34,000  Level Chicago Center
09:44PM 41.6303 -88.8531 257° West 403 464 34,000  Level Chicago Center
09:45PM 41.6039 -89.0006 257° West 406 467 34,000  Level Chicago Center
09:46PM 41.5775 -89.1464 256° West 405 466 34,000  Level Chicago Center
09:47PM 41.5519 -89.2908 257° West 401 461 34,000  Level Chicago Center
09:48PM 41.5247 -89.4367 256° West 405 466 34,000  Level Chicago Center
09:49PM 41.5000 -89.5825 257° West 404 465 34,000  Level Chicago Center
09:50PM 41.4672 -89.7550 256° West 403 464 34,000  Level Chicago Center
09:51PM 41.4414 -89.8969 256° West 398 458 34,000  Level Chicago Center
09:52PM 41.4139 -90.0406 256° West 400 460 34,000  Level Chicago Center
09:53PM 41.3875 -90.1822 256° West 398 458 34,000  Level Chicago Center
09:54PM 41.3594 -90.3247 255° West 399 459 34,000  Level Chicago Center
09:55PM 41.3322 -90.4689 256° West 402 463 34,000  Level Chicago Center
09:56PM 41.2994 -90.6386 256° West 398 458 34,000  Level Chicago Center
09:57PM 41.2708 -90.7811 255° West 400 460 34,000  Level Chicago Center
09:58PM 41.2433 -90.9219 255° West 396 456 34,000  Level Chicago Center
09:59PM 41.2144 -91.0669 255° West 402 463 34,000  Level Chicago Center
10:00PM 41.1869 -91.2092 256° West 402 463 34,000  Level Chicago Center
10:01PM 41.1581 -91.3528 255° West 401 461 34,000  Level Chicago Center
10:02PM 41.1283 -91.4958 255° West 403 464 34,000  Level Chicago Center
10:03PM 41.0997 -91.6406 255° West 406 467 34,000  Level Chicago Center
10:04PM 41.0658 -91.8050 255° West 400 460 34,000  Level Chicago Center
10:05PM 41.0364 -91.9464 255° West 402 463 34,000  Level Chicago Center
10:06PM 41.0078 -92.0844 255° West 397 457 34,000  Level Chicago Center
10:07PM 40.9786 -92.2247 255° West 398 458 34,000  Level Chicago Center
10:08PM 40.9431 -92.3900 254° West 396 456 34,000  Level Chicago Center
10:09PM 40.9144 -92.5275 255° West 394 453 34,000  Level Chicago Center
10:10PM 40.8850 -92.6667 254° West 397 457 34,000  Level Chicago Center
10:11PM 40.8556 -92.8047 254° West 397 457 34,000  Level Chicago Center
10:12PM 40.8256 -92.9428 254° West 396 456 34,000  Level Chicago Center
10:13PM 40.7950 -93.0808 254° West 397 457 34,000  Level Chicago Center
10:14PM 40.7589 -93.2456 254° West 395 455 34,000  Level Chicago Center
10:15PM 40.7283 -93.3825 254° West 395 455 34,000  Level Chicago Center
10:16PM 40.6975 -93.5206 254° West 397 457 34,000  Level Chicago Center
10:17PM 40.6672 -93.6569 254° West 394 453 34,000  Level Chicago Center
10:18PM 40.6358 -93.7944 253° West 395 455 34,000  Level Chicago Center
10:19PM 40.6047 -93.9336 254° West 399 459 34,000  Level Chicago Center
10:21PM 40.5617 -94.0956 251° West 397 457 34,000  Level Chicago Center
10:22PM 40.5144 -94.2603 249° West 399 459 34,000  Level Minneapolis Center
10:23PM 40.4722 -94.3983 248° West 405 466 34,000  Level Minneapolis Center
10:24PM 40.4311 -94.5347 248° West 406 467 34,000  Level Minneapolis Center
10:25PM 40.3928 -94.6733 250° West 401 461 34,000  Level Minneapolis Center
10:26PM 40.3522 -94.8242 251° West 403 464 34,000  Level Kansas City Center
10:27PM 40.3136 -94.9528 249° West 400 460 34,000  Level Kansas City Center
10:28PM 40.2686 -95.1053 249° West 401 461 34,000  Level Kansas City Center
10:29PM 40.2247 -95.2500 248° West 403 464 34,000  Level Minneapolis Center
10:30PM 40.1844 -95.3869 249° West 404 465 34,000  Level Minneapolis Center
10:31PM 40.1431 -95.5247 249° West 405 466 34,000  Level Minneapolis Center
10:32PM 40.1025 -95.6606 249° West 403 464 34,000  Level Minneapolis Center
10:33PM 40.0608 -95.7972 248° West 403 464 34,000  Level Minneapolis Center
10:34PM 40.0211 -95.9331 249° West 402 463 34,000  Level Kansas City Center
10:35PM 39.9811 -96.0628 248° West 402 463 34,000  Level Kansas City Center
10:36PM 39.9389 -96.1997 248° West 403 464 34,000  Level Kansas City Center
10:37PM 39.8981 -96.3367 249° West 405 466 34,000  Level Kansas City Center
10:38PM 39.8483 -96.5008 249° West 408 470 34,000  Level Kansas City Center
10:39PM 39.8069 -96.6383 249° West 407 468 34,000  Level Kansas City Center
10:40PM 39.7711 -96.7594 249° West 410 472 34,000  Level Kansas City Center
10:41PM 39.7478 -96.9017 258° West 404 465 34,000  Level Kansas City Center
10:42PM 39.7297 -97.0414 261° West 398 458 34,000  Level Kansas City Center
10:43PM 39.7078 -97.2017 260° West 397 457 34,000  Level Kansas City Center
10:44PM 39.6869 -97.3447 259° West 401 461 34,000  Level Kansas City Center
10:45PM 39.6683 -97.4864 260° West 399 459 34,000  Level Kansas City Center
10:46PM 39.6503 -97.6278 261° West 397 457 34,000  Level Kansas City Center
10:47PM 39.6331 -97.7394 259° West 398 458 34,000  Level Minneapolis Center
10:48PM 39.5919 -97.9036 252° West 398 458 34,000  Level Minneapolis Center
10:49PM 39.5575 -98.0486 253° West 398 458 34,000  Level Kansas City Center
10:51PM 39.4692 -98.2497 240° Southwest 414 476 34,000  Level Denver Center
10:52PM 39.4108 -98.3778 240° Southwest 413 475 34,000  Level Denver Center
10:53PM 39.3400 -98.5308 239° Southwest 413 475 34,000  Level Denver Center
10:54PM 39.2822 -98.6578 240° Southwest 411 473 34,000  Level Denver Center
10:55PM 39.2228 -98.7908 240° Southwest 410 472 34,000  Level Kansas City Center
10:56PM 39.1689 -98.9147 241° Southwest 409 471 34,000  Level Kansas City Center
10:57PM 39.1136 -99.0433 241° Southwest 410 472 34,000  Level Kansas City Center
10:58PM 39.0594 -99.1728 242° Southwest 412 474 34,000  Level Kansas City Center
10:59PM 39.0089 -99.3031 243° Southwest 409 471 34,000  Level Kansas City Center
11:00PM 38.9794 -99.4394 255° West 401 461 34,000  Level Kansas City Center
11:02PM 38.9108 -99.7353 253° West 397 457 34,000  Level Denver Center
11:03PM 38.8761 -99.8911 254° West 405 466 34,000  Level Denver Center
11:04PM 38.8453 -100.0219 253° West 403 464 34,000  Level Denver Center
11:05PM 38.8103 -100.1778 254° West 408 470 34,000  Level Denver Center
11:06PM 38.7800 -100.3097 254° West 407 468 34,000  Level Denver Center
11:07PM 38.7489 -100.4417 253° West 404 465 34,000  Level Denver Center
11:08PM 38.7122 -100.5989 253° West 411 473 34,000  Level Denver Center
11:09PM 38.6817 -100.7317 254° West 409 471 34,000  Level Denver Center
11:10PM 38.6444 -100.8881 253° West 412 474 34,000  Level Denver Center
11:12PM 38.6128 -101.0222 253° West 413 475 34,000  Level Denver Center
11:13PM 38.5750 -101.1772 253° West 411 473 34,000  Level Denver Center
11:14PM 38.5436 -101.3117 253° West 413 475 34,000  Level Denver Center
11:15PM 38.5053 -101.4667 253° West 414 476 34,000  Level Denver Center
11:16PM 38.4731 -101.6000 253° West 414 476 34,000  Level Denver Center
11:17PM 38.4242 -101.7547 248° West 422 486 34,000  Level Denver Center
11:18PM 38.3800 -101.8867 247° West 423 487 34,000  Level Denver Center
11:19PM 38.3353 -102.0169 246° West 422 486 34,000  Level Denver Center
11:20PM 38.2836 -102.1692 247° West 422 486 34,000  Level Denver Center
11:21PM 38.2397 -102.2986 247° West 418 481 34,000  Level Denver Center
11:22PM 38.1878 -102.4511 247° West 422 486 34,000  Level Denver Center
11:23PM 38.1419 -102.5814 246° West 423 487 34,000  Level Denver Center
11:24PM 38.0886 -102.7333 246° West 423 487 34,000  Level Denver Center
11:25PM 38.0439 -102.8650 247° West 425 489 34,000  Level Denver Center
11:26PM 37.9939 -103.0061 246° West 425 489 34,000  Level Denver Center
11:27PM 37.9403 -103.1592 246° West 426 490 34,000  Level Denver Center
11:28PM 37.8942 -103.2892 246° West 424 488 34,000  Level Denver Center
11:29PM 37.8489 -103.4175 246° West 418 481 34,000  Level Denver Center
11:30PM 37.7883 -103.5906 246° West 421 484 34,000  Level Denver Center
11:31PM 37.7339 -103.7408 245° Southwest 420 483 34,000  Level Denver Center
11:32PM 37.6881 -103.8700 246° West 424 488 34,000  Level Denver Center
11:33PM 37.6364 -104.0211 247° West 428 493 34,000  Level Denver Center
11:34PM 37.5875 -104.1492 244° Southwest 433 498 34,000  Level Denver Center
11:35PM 37.5336 -104.2922 245° Southwest 410 472 34,000  Level Denver Center
11:36PM 37.4883 -104.4156 245° Southwest 408 470 34,000  Level Denver Center
11:37PM 37.4342 -104.5619 245° Southwest 413 475 34,000  Level Denver Center
11:39PM 37.3811 -104.7094 246° West 414 476 34,000 360 Level Denver Center
11:40PM 37.3256 -104.8553 244° Southwest 414 476 34,900 960 Climbing Denver Center
11:41PM 37.2794 -104.9783 245° Southwest 411 473 36,000 480 Climbing Denver Center
11:42PM 37.2342 -105.1019 245° Southwest 408 470 36,000  Level Denver Center
11:43PM 37.1797 -105.2456 245° Southwest 408 470 36,000  Level Denver Center
11:44PM 37.1328 -105.3675 244° Southwest 406 467 36,000  Level Denver Center
11:45PM 37.0797 -105.5103 245° Southwest 404 465 36,000  Level Denver Center
11:46PM 37.0333 -105.6306 244° Southwest 403 464 36,000  Level Denver Center
11:47PM 36.9789 -105.7725 244° Southwest 404 465 36,000  Level Denver Center
11:48PM 36.9314 -105.8947 244° Southwest 407 468 36,000  Level Denver Center
11:49PM 36.8856 -106.0167 245° Southwest 406 467 36,000  Level Denver Center
11:50PM 36.8456 -106.1164 243° Southwest 403 464 36,000  Level Denver Center
11:51PM 36.7817 -106.2797 244° Southwest 404 465 36,000  Level Denver Center
11:52PM 36.7300 -106.4150 245° Southwest 408 470 36,000  Level Denver Center
11:53PM 36.6786 -106.5447 244° Southwest 410 472 36,000  Level Denver Center
11:54PM 36.6303 -106.6672 244° Southwest 411 473 36,000  Level Denver Center
11:55PM 36.5744 -106.8117 244° Southwest 415 478 36,000  Level Denver Center
11:56PM 36.5247 -106.9336 243° Southwest 413 475 36,000  Level Denver Center
11:57PM 36.4758 -107.0550 243° Southwest 412 474 36,000  Level Denver Center
11:58PM 36.4281 -107.1775 244° Southwest 411 473 36,000  Level Denver Center
11:59PM 36.3706 -107.3208 244° Southwest 411 473 36,000  Level Albuquerque Center
12:00AM 36.3131 -107.4639 244° Southwest 413 475 36,000  Level Albuquerque Center
12:01AM 36.2631 -107.5858 243° Southwest 413 475 36,000  Level Albuquerque Center
12:02AM 36.2111 -107.7069 242° Southwest 415 478 36,000  Level Albuquerque Center
12:03AM 36.1317 -107.8347 232° Southwest 418 481 36,000  Level Albuquerque Center
12:04AM 36.0642 -107.9439 233° Southwest 417 480 36,000  Level Albuquerque Center
12:05AM 35.9958 -108.0522 232° Southwest 416 479 36,000  Level Albuquerque Center
12:06AM 35.9167 -108.1786 232° Southwest 416 479 36,000  Level Albuquerque Center
12:07AM 35.8481 -108.2881 232° Southwest 417 480 36,000  Level Albuquerque Center
12:08AM 35.7800 -108.3967 232° Southwest 417 480 36,000  Level Albuquerque Center
12:09AM 35.6967 -108.5261 232° Southwest 424 488 36,000  Level Albuquerque Center
12:10AM 35.6225 -108.6386 231° Southwest 434 499 36,000 -300 Level Albuquerque Center
12:11AM 35.5447 -108.7444 228° Southwest 435 501 35,500 -1,080 Descending Albuquerque Center
12:12AM 35.4528 -108.8678 228° Southwest 435 501 33,900 -1,560 Descending Albuquerque Center
12:13AM 35.3736 -108.9739 228° Southwest 438 504 32,400 -960 Descending Albuquerque Center
12:14AM 35.2778 -109.1003 227° Southwest 447 514 32,000 -240 Descending Albuquerque Center
12:15AM 35.1956 -109.2097 227° Southwest 452 520 32,000  Level Albuquerque Center
12:16AM 35.1144 -109.3186 228° Southwest 452 520 32,000  Level Albuquerque Center
12:17AM 35.0200 -109.4453 228° Southwest 451 519 32,000  Level Albuquerque Center
12:19AM 34.9367 -109.5536 227° Southwest 455 524 32,000  Level Albuquerque Center
12:20AM 34.8556 -109.6617 228° Southwest 453 521 32,000  Level Albuquerque Center
12:21AM 34.7600 -109.7878 227° Southwest 453 521 32,000  Level Albuquerque Center
12:22AM 34.6903 -109.9111 236° Southwest 456 525 32,000  Level Albuquerque Center
12:23AM 34.6381 -110.0483 245° Southwest 464 534 32,000  Level Albuquerque Center
12:24AM 34.5794 -110.2106 246° West 468 539 32,000  Level Albuquerque Center
12:25AM 34.5269 -110.3414 244° Southwest 458 527 32,000 -240 Level Albuquerque Center
12:26AM 34.4814 -110.4689 247° West 454 522 31,600 -1,440 Descending Albuquerque Center
12:27AM 34.4222 -110.6272 246° West 435 501 29,100 -2,220 Descending Albuquerque Center
12:28AM 34.3717 -110.7544 244° Southwest 423 487 27,100 -1,980 Descending Albuquerque Center
12:29AM 34.3017 -110.8631 232° Southwest 412 474 25,100 -1,920 Descending Albuquerque Center
12:30AM 34.2292 -110.9583 227° Southwest 392 451 23,300 -1,800 Descending Albuquerque Center
12:31AM 34.1556 -111.0519 226° Southwest 386 444 21,500 -1,740 Descending Albuquerque Center
12:32AM 34.0856 -111.1433 227° Southwest 375 432 19,800 -1,740 Descending Albuquerque Center
12:33AM 34.0175 -111.2303 227° Southwest 363 418 18,000 -1,800 Descending Albuquerque Center
12:34AM 33.9522 -111.3147 227° Southwest 348 400 16,200 -1,440 Descending Albuquerque Center
12:35AM 33.8878 -111.3961 226° Southwest 335 386 15,100 -1,140 Descending Albuquerque Center
12:36AM 33.8381 -111.4858 236° Southwest 322 371 13,900 -1,380 Descending Albuquerque Center
12:37AM 33.7922 -111.5758 239° Southwest 315 362 12,300 -1,560 Descending Albuquerque Center
12:38AM 33.7458 -111.6631 237° Southwest 310 357 10,800 -1,260 Descending Albuquerque Center
12:39AM 33.7003 -111.7469 237° Southwest 297 342 9,800 -720 Descending Albuquerque Center
12:40AM 33.6558 -111.8292 237° Southwest 294 338 9,400 -420 Descending Albuquerque Center
12:41AM 33.6139 -111.9050 236° Southwest 274 315 9,000 -600 Descending Albuquerque Center
12:42AM 33.5767 -111.9744 237° Southwest 250 288 8,200 -840 Descending Albuquerque Center
12:43AM 33.5419 -112.0417 238° Southwest 240 276 7,400 -780 Descending Albuquerque Center
12:44AM 33.5267 -112.1269 258° West 218 251 6,700 -840 Descending Albuquerque Center
12:45AM 33.4958 -112.1706 230° Southwest 202 232 5,700 -1,560 Descending Albuquerque Center
12:46AM 33.4467 -112.1600 170° South 193 222 3,600 -1,740 Descending Albuquerque Center
12:47AM 33.4411 -112.1000 96° East 188 216 2,200 -1,080 Descending Albuquerque Center
12:48AM 33.4411 -112.0536 90° East 147 169 1,500 -600 Descending Albuquerque Center
12:49AM 33.4414 -112.0050 90° East 136 157 1,000 -540 Descending Albuquerque Center